Briefing drone pour Firminy

Rechercher une autre localisation

Conditions de vol :


Nous sommes le : Jeudi 17 juin 2021
Il est 19:44 UTC (21:44 LT)

Lever de soleil : 03:27 UTC (05:27 LT)
Coucher de soleil : 19:59 UTC (21:59 LT)

Météo

L'essentiel des conditions de vol

VIGILANCE MÉTÉO FRANCE - Loire (42)
Vigilance Jaune : Canicule / Orages
METAR de LFMH
LFMH 171930Z AUTO VRB02KT CAVOK 20/18 Q1013

Date d'émission: 17/06/2021
Heure d'émission: 19:30 UTC
Vent: Variable 2 KT (4 km/h)
Visibilité horizontale: > 10 km
Plafond : Plafond et visibilité OK (CAVOK)
Température: 20 °C
Point de rosée: 18 °C
Humidité: 88%
Pression (QNH): 1013 hPa
TAF de LFMH
LFMH 161901Z 1619/1712 CNL

Conditions prévues :

Heure d'émission : Bulletin éffectué le 16 à 19:00 UTC
Prévision : Valide du 16 a 19:00 UTC au 17 a 12:00 UTC
Nuages : à 0ft (0 m)
WEBCAM POUR FIRMINY

Réglementation

Voler en sécurité

CARTES AERONAUTIQUE 1/500.000
CARTES VAC (LFMH)
SUP AIP




Chargement des AIP...
NOTAM (FIRMINY + Terrain à proximité / FIR )




Chargement des NOTAMS...
CONTACT PREFECTURE 42


Avertissement : Les données mises à disposition sont indicatives. Oxygène Drone ne pourra être tenu responsable de dégâts causés aux biens et aux personnes.